sensor_id;sensor_type;location;lat;lon;timestamp;P1;durP1;ratioP1;P2;durP2;ratioP2
5428;SDS011;2737;52.386;9.980;2023-06-26T00:00:53;7.32;;;5.53;;
5428;SDS011;2737;52.386;9.980;2023-06-26T00:03:20;6.13;;;5.47;;
5428;SDS011;2737;52.386;9.980;2023-06-26T00:05:48;8.68;;;5.55;;
5428;SDS011;2737;52.386;9.980;2023-06-26T00:08:15;7.88;;;6.10;;
5428;SDS011;2737;52.386;9.980;2023-06-26T00:10:44;6.93;;;5.30;;
5428;SDS011;2737;52.386;9.980;2023-06-26T00:13:11;7.70;;;5.70;;
5428;SDS011;2737;52.386;9.980;2023-06-26T00:15:38;7.40;;;5.68;;
5428;SDS011;2737;52.386;9.980;2023-06-26T00:18:05;6.93;;;5.53;;
5428;SDS011;2737;52.386;9.980;2023-06-26T00:20:32;11.43;;;6.68;;
5428;SDS011;2737;52.386;9.980;2023-06-26T00:23:00;7.93;;;5.50;;
5428;SDS011;2737;52.386;9.980;2023-06-26T00:25:29;7.57;;;5.75;;
5428;SDS011;2737;52.386;9.980;2023-06-26T00:27:57;7.50;;;6.40;;
5428;SDS011;2737;52.386;9.980;2023-06-26T00:30:24;7.13;;;6.18;;
5428;SDS011;2737;52.386;9.980;2023-06-26T00:32:51;6.88;;;5.82;;
5428;SDS011;2737;52.386;9.980;2023-06-26T00:35:18;10.75;;;6.45;;
5428;SDS011;2737;52.386;9.980;2023-06-26T00:37:45;6.45;;;5.72;;
5428;SDS011;2737;52.386;9.980;2023-06-26T00:40:12;7.70;;;5.63;;
5428;SDS011;2737;52.386;9.980;2023-06-26T00:42:39;7.25;;;5.68;;
5428;SDS011;2737;52.386;9.980;2023-06-26T00:45:08;7.22;;;6.25;;
5428;SDS011;2737;52.386;9.980;2023-06-26T00:47:35;6.00;;;5.32;;
5428;SDS011;2737;52.386;9.980;2023-06-26T00:50:03;7.28;;;6.28;;
5428;SDS011;2737;52.386;9.980;2023-06-26T00:52:31;6.60;;;5.72;;
5428;SDS011;2737;52.386;9.980;2023-06-26T00:54:58;8.40;;;6.10;;
5428;SDS011;2737;52.386;9.980;2023-06-26T00:57:25;11.10;;;5.65;;
5428;SDS011;2737;52.386;9.980;2023-06-26T00:59:53;7.97;;;5.87;;
5428;SDS011;2737;52.386;9.980;2023-06-26T01:02:22;9.63;;;5.63;;
5428;SDS011;2737;52.386;9.980;2023-06-26T01:04:49;10.02;;;5.60;;
5428;SDS011;2737;52.386;9.980;2023-06-26T01:07:17;6.75;;;5.72;;
5428;SDS011;2737;52.386;9.980;2023-06-26T01:09:46;9.53;;;6.57;;
5428;SDS011;2737;52.386;9.980;2023-06-26T01:12:14;7.75;;;6.95;;
5428;SDS011;2737;52.386;9.980;2023-06-26T01:14:41;7.60;;;5.83;;
5428;SDS011;2737;52.386;9.980;2023-06-26T01:17:08;9.97;;;6.20;;
5428;SDS011;2737;52.386;9.980;2023-06-26T01:19:38;6.90;;;5.60;;
5428;SDS011;2737;52.386;9.980;2023-06-26T01:22:09;9.13;;;6.33;;
5428;SDS011;2737;52.386;9.980;2023-06-26T01:25:01;8.27;;;5.30;;
5428;SDS011;2737;52.386;9.980;2023-06-26T01:27:38;7.60;;;6.10;;
5428;SDS011;2737;52.386;9.980;2023-06-26T01:30:07;9.75;;;6.10;;
5428;SDS011;2737;52.386;9.980;2023-06-26T01:32:36;10.32;;;6.78;;
5428;SDS011;2737;52.386;9.980;2023-06-26T01:35:04;7.13;;;6.10;;
5428;SDS011;2737;52.386;9.980;2023-06-26T01:37:33;10.23;;;6.10;;
5428;SDS011;2737;52.386;9.980;2023-06-26T01:40:00;8.50;;;6.87;;
5428;SDS011;2737;52.386;9.980;2023-06-26T01:42:30;8.40;;;6.30;;
5428;SDS011;2737;52.386;9.980;2023-06-26T01:44:59;7.60;;;6.53;;
5428;SDS011;2737;52.386;9.980;2023-06-26T01:47:30;7.70;;;5.72;;
5428;SDS011;2737;52.386;9.980;2023-06-26T01:50:02;8.83;;;5.17;;
5428;SDS011;2737;52.386;9.980;2023-06-26T01:52:37;7.15;;;5.35;;
5428;SDS011;2737;52.386;9.980;2023-06-26T01:55:10;6.63;;;5.57;;
5428;SDS011;2737;52.386;9.980;2023-06-26T01:57:44;8.97;;;5.70;;
5428;SDS011;2737;52.386;9.980;2023-06-26T02:00:15;10.77;;;5.60;;
5428;SDS011;2737;52.386;9.980;2023-06-26T02:02:44;10.90;;;6.00;;
5428;SDS011;2737;52.386;9.980;2023-06-26T02:05:11;7.83;;;5.10;;
5428;SDS011;2737;52.386;9.980;2023-06-26T02:07:38;6.83;;;5.23;;
5428;SDS011;2737;52.386;9.980;2023-06-26T02:10:06;11.37;;;5.70;;
5428;SDS011;2737;52.386;9.980;2023-06-26T02:12:33;7.97;;;5.40;;
5428;SDS011;2737;52.386;9.980;2023-06-26T02:15:01;10.07;;;5.47;;
5428;SDS011;2737;52.386;9.980;2023-06-26T02:17:29;8.37;;;5.87;;
5428;SDS011;2737;52.386;9.980;2023-06-26T02:19:56;11.50;;;6.33;;
5428;SDS011;2737;52.386;9.980;2023-06-26T02:22:23;8.20;;;5.40;;
5428;SDS011;2737;52.386;9.980;2023-06-26T02:24:50;7.53;;;5.97;;
5428;SDS011;2737;52.386;9.980;2023-06-26T02:27:17;6.70;;;5.70;;
5428;SDS011;2737;52.386;9.980;2023-06-26T02:29:44;9.30;;;6.00;;
5428;SDS011;2737;52.386;9.980;2023-06-26T02:32:11;9.23;;;6.03;;
5428;SDS011;2737;52.386;9.980;2023-06-26T02:34:40;8.50;;;5.43;;
5428;SDS011;2737;52.386;9.980;2023-06-26T02:37:07;7.60;;;5.37;;
5428;SDS011;2737;52.386;9.980;2023-06-26T02:39:35;9.80;;;5.50;;
5428;SDS011;2737;52.386;9.980;2023-06-26T02:42:02;8.10;;;5.20;;
5428;SDS011;2737;52.386;9.980;2023-06-26T02:44:29;9.60;;;6.23;;
5428;SDS011;2737;52.386;9.980;2023-06-26T02:46:56;8.40;;;5.67;;
5428;SDS011;2737;52.386;9.980;2023-06-26T02:49:23;8.07;;;5.47;;
5428;SDS011;2737;52.386;9.980;2023-06-26T02:51:52;8.80;;;5.90;;
5428;SDS011;2737;52.386;9.980;2023-06-26T02:54:19;7.40;;;5.87;;
5428;SDS011;2737;52.386;9.980;2023-06-26T02:56:46;12.70;;;6.17;;
5428;SDS011;2737;52.386;9.980;2023-06-26T02:59:13;8.03;;;5.50;;
5428;SDS011;2737;52.386;9.980;2023-06-26T03:01:40;13.00;;;5.60;;
5428;SDS011;2737;52.386;9.980;2023-06-26T03:04:07;6.93;;;5.27;;
5428;SDS011;2737;52.386;9.980;2023-06-26T03:06:35;10.50;;;5.33;;
5428;SDS011;2737;52.386;9.980;2023-06-26T03:09:03;6.63;;;5.30;;
5428;SDS011;2737;52.386;9.980;2023-06-26T03:11:30;6.47;;;5.07;;
5428;SDS011;2737;52.386;9.980;2023-06-26T03:13:57;8.43;;;5.20;;
5428;SDS011;2737;52.386;9.980;2023-06-26T03:16:24;6.50;;;5.40;;
5428;SDS011;2737;52.386;9.980;2023-06-26T03:18:51;13.37;;;5.57;;
5428;SDS011;2737;52.386;9.980;2023-06-26T03:21:18;11.63;;;5.73;;
5428;SDS011;2737;52.386;9.980;2023-06-26T03:23:45;5.73;;;4.90;;
5428;SDS011;2737;52.386;9.980;2023-06-26T03:26:14;11.67;;;5.17;;
5428;SDS011;2737;52.386;9.980;2023-06-26T03:28:41;8.20;;;5.63;;
5428;SDS011;2737;52.386;9.980;2023-06-26T03:31:08;6.90;;;5.20;;
5428;SDS011;2737;52.386;9.980;2023-06-26T03:33:35;8.00;;;5.23;;
5428;SDS011;2737;52.386;9.980;2023-06-26T03:36:03;13.10;;;6.17;;
5428;SDS011;2737;52.386;9.980;2023-06-26T03:38:31;7.20;;;5.10;;
5428;SDS011;2737;52.386;9.980;2023-06-26T03:40:58;7.73;;;5.23;;
5428;SDS011;2737;52.386;9.980;2023-06-26T03:43:26;9.83;;;5.50;;
5428;SDS011;2737;52.386;9.980;2023-06-26T03:45:53;9.93;;;5.20;;
5428;SDS011;2737;52.386;9.980;2023-06-26T03:48:20;6.37;;;4.80;;
5428;SDS011;2737;52.386;9.980;2023-06-26T03:50:47;7.50;;;4.80;;
5428;SDS011;2737;52.386;9.980;2023-06-26T03:53:14;9.07;;;5.17;;
5428;SDS011;2737;52.386;9.980;2023-06-26T03:55:41;6.60;;;4.90;;
5428;SDS011;2737;52.386;9.980;2023-06-26T03:58:08;9.63;;;5.70;;
5428;SDS011;2737;52.386;9.980;2023-06-26T04:00:37;11.00;;;4.80;;
5428;SDS011;2737;52.386;9.980;2023-06-26T04:03:05;7.00;;;4.93;;
5428;SDS011;2737;52.386;9.980;2023-06-26T04:05:32;10.90;;;5.50;;
5428;SDS011;2737;52.386;9.980;2023-06-26T04:07:59;8.60;;;5.50;;
5428;SDS011;2737;52.386;9.980;2023-06-26T04:10:26;9.90;;;5.67;;
5428;SDS011;2737;52.386;9.980;2023-06-26T04:12:53;5.13;;;4.30;;
5428;SDS011;2737;52.386;9.980;2023-06-26T04:15:20;8.37;;;5.23;;
5428;SDS011;2737;52.386;9.980;2023-06-26T04:17:48;6.87;;;4.90;;
5428;SDS011;2737;52.386;9.980;2023-06-26T04:20:15;6.20;;;4.70;;
5428;SDS011;2737;52.386;9.980;2023-06-26T04:22:42;6.30;;;4.40;;
5428;SDS011;2737;52.386;9.980;2023-06-26T04:25:09;8.13;;;5.30;;
5428;SDS011;2737;52.386;9.980;2023-06-26T04:27:37;5.87;;;4.50;;
5428;SDS011;2737;52.386;9.980;2023-06-26T04:30:05;6.47;;;5.23;;
5428;SDS011;2737;52.386;9.980;2023-06-26T04:32:33;7.80;;;4.50;;
5428;SDS011;2737;52.386;9.980;2023-06-26T04:35:01;7.73;;;4.30;;
5428;SDS011;2737;52.386;9.980;2023-06-26T04:37:28;7.23;;;4.97;;
5428;SDS011;2737;52.386;9.980;2023-06-26T04:39:55;9.20;;;4.77;;
5428;SDS011;2737;52.386;9.980;2023-06-26T04:42:22;8.60;;;5.33;;
5428;SDS011;2737;52.386;9.980;2023-06-26T04:44:49;14.07;;;4.90;;
5428;SDS011;2737;52.386;9.980;2023-06-26T04:47:16;5.87;;;3.97;;
5428;SDS011;2737;52.386;9.980;2023-06-26T04:49:43;6.00;;;4.67;;
5428;SDS011;2737;52.386;9.980;2023-06-26T04:52:12;7.80;;;4.60;;
5428;SDS011;2737;52.386;9.980;2023-06-26T04:54:39;6.37;;;4.43;;
5428;SDS011;2737;52.386;9.980;2023-06-26T04:57:06;9.23;;;4.90;;
5428;SDS011;2737;52.386;9.980;2023-06-26T04:59:34;5.55;;;4.28;;
5428;SDS011;2737;52.386;9.980;2023-06-26T05:02:01;12.32;;;4.38;;
5428;SDS011;2737;52.386;9.980;2023-06-26T05:04:30;6.22;;;4.40;;
5428;SDS011;2737;52.386;9.980;2023-06-26T05:06:57;6.03;;;4.28;;
5428;SDS011;2737;52.386;9.980;2023-06-26T05:09:25;5.40;;;4.30;;
5428;SDS011;2737;52.386;9.980;2023-06-26T05:11:52;13.20;;;4.50;;
5428;SDS011;2737;52.386;9.980;2023-06-26T05:14:19;7.95;;;4.22;;
5428;SDS011;2737;52.386;9.980;2023-06-26T05:16:46;7.28;;;4.45;;
5428;SDS011;2737;52.386;9.980;2023-06-26T05:19:13;6.45;;;4.25;;
5428;SDS011;2737;52.386;9.980;2023-06-26T05:21:40;7.82;;;4.78;;
5428;SDS011;2737;52.386;9.980;2023-06-26T05:24:08;11.05;;;4.55;;
5428;SDS011;2737;52.386;9.980;2023-06-26T05:26:37;9.40;;;4.85;;
5428;SDS011;2737;52.386;9.980;2023-06-26T05:29:05;13.50;;;5.10;;
5428;SDS011;2737;52.386;9.980;2023-06-26T05:31:32;13.63;;;5.05;;
5428;SDS011;2737;52.386;9.980;2023-06-26T05:34:02;7.32;;;4.57;;
5428;SDS011;2737;52.386;9.980;2023-06-26T05:36:31;7.25;;;4.90;;
5428;SDS011;2737;52.386;9.980;2023-06-26T05:39:00;8.95;;;4.32;;
5428;SDS011;2737;52.386;9.980;2023-06-26T05:41:27;5.28;;;4.03;;
5428;SDS011;2737;52.386;9.980;2023-06-26T05:43:56;8.45;;;4.45;;
5428;SDS011;2737;52.386;9.980;2023-06-26T05:46:23;7.60;;;4.70;;
5428;SDS011;2737;52.386;9.980;2023-06-26T05:48:50;6.25;;;4.05;;
5428;SDS011;2737;52.386;9.980;2023-06-26T05:51:17;7.28;;;4.60;;
5428;SDS011;2737;52.386;9.980;2023-06-26T05:53:45;7.10;;;4.20;;
5428;SDS011;2737;52.386;9.980;2023-06-26T05:56:12;5.47;;;4.28;;
5428;SDS011;2737;52.386;9.980;2023-06-26T05:58:39;5.82;;;4.10;;
5428;SDS011;2737;52.386;9.980;2023-06-26T06:01:09;7.53;;;4.45;;
5428;SDS011;2737;52.386;9.980;2023-06-26T06:03:36;6.03;;;3.92;;
5428;SDS011;2737;52.386;9.980;2023-06-26T06:06:04;5.25;;;4.18;;
5428;SDS011;2737;52.386;9.980;2023-06-26T06:08:32;6.03;;;3.92;;
5428;SDS011;2737;52.386;9.980;2023-06-26T06:10:59;5.05;;;4.30;;
5428;SDS011;2737;52.386;9.980;2023-06-26T06:13:26;9.40;;;4.55;;
5428;SDS011;2737;52.386;9.980;2023-06-26T06:15:54;8.75;;;4.03;;
5428;SDS011;2737;52.386;9.980;2023-06-26T06:18:22;6.30;;;3.97;;
5428;SDS011;2737;52.386;9.980;2023-06-26T06:20:49;6.53;;;4.45;;
5428;SDS011;2737;52.386;9.980;2023-06-26T06:23:16;6.38;;;4.50;;
5428;SDS011;2737;52.386;9.980;2023-06-26T06:25:43;12.68;;;4.22;;
5428;SDS011;2737;52.386;9.980;2023-06-26T06:28:10;8.60;;;5.13;;
5428;SDS011;2737;52.386;9.980;2023-06-26T06:30:37;8.18;;;4.57;;
5428;SDS011;2737;52.386;9.980;2023-06-26T06:33:04;9.60;;;4.55;;
5428;SDS011;2737;52.386;9.980;2023-06-26T06:35:33;4.70;;;4.00;;
5428;SDS011;2737;52.386;9.980;2023-06-26T06:38:00;15.43;;;4.95;;
5428;SDS011;2737;52.386;9.980;2023-06-26T06:40:27;7.55;;;3.83;;
5428;SDS011;2737;52.386;9.980;2023-06-26T06:42:54;6.22;;;4.80;;
5428;SDS011;2737;52.386;9.980;2023-06-26T06:45:21;7.00;;;4.10;;
5428;SDS011;2737;52.386;9.980;2023-06-26T06:47:48;5.78;;;5.15;;
5428;SDS011;2737;52.386;9.980;2023-06-26T06:50:15;6.65;;;4.40;;
5428;SDS011;2737;52.386;9.980;2023-06-26T06:52:44;9.63;;;4.35;;
5428;SDS011;2737;52.386;9.980;2023-06-26T06:55:11;7.07;;;4.75;;
5428;SDS011;2737;52.386;9.980;2023-06-26T06:57:39;13.38;;;5.22;;
5428;SDS011;2737;52.386;9.980;2023-06-26T07:00:07;9.93;;;4.63;;
5428;SDS011;2737;52.386;9.980;2023-06-26T07:02:35;8.95;;;5.18;;
5428;SDS011;2737;52.386;9.980;2023-06-26T07:05:02;13.43;;;4.63;;
5428;SDS011;2737;52.386;9.980;2023-06-26T07:07:30;5.03;;;4.25;;
5428;SDS011;2737;52.386;9.980;2023-06-26T07:09:59;7.07;;;4.65;;
5428;SDS011;2737;52.386;9.980;2023-06-26T07:12:28;7.05;;;4.32;;
5428;SDS011;2737;52.386;9.980;2023-06-26T07:14:55;5.25;;;4.60;;
5428;SDS011;2737;52.386;9.980;2023-06-26T07:17:23;5.10;;;4.43;;
5428;SDS011;2737;52.386;9.980;2023-06-26T07:19:50;8.82;;;4.82;;
5428;SDS011;2737;52.386;9.980;2023-06-26T07:22:17;5.88;;;4.40;;
5428;SDS011;2737;52.386;9.980;2023-06-26T07:24:45;6.45;;;4.53;;
5428;SDS011;2737;52.386;9.980;2023-06-26T07:27:14;7.20;;;4.90;;
5428;SDS011;2737;52.386;9.980;2023-06-26T07:29:43;6.20;;;4.50;;
5428;SDS011;2737;52.386;9.980;2023-06-26T07:32:10;8.85;;;4.38;;
5428;SDS011;2737;52.386;9.980;2023-06-26T07:34:37;8.80;;;4.75;;
5428;SDS011;2737;52.386;9.980;2023-06-26T07:37:04;7.65;;;4.72;;
5428;SDS011;2737;52.386;9.980;2023-06-26T07:39:31;7.90;;;4.25;;
5428;SDS011;2737;52.386;9.980;2023-06-26T07:41:58;6.30;;;5.13;;
5428;SDS011;2737;52.386;9.980;2023-06-26T07:44:27;6.93;;;4.25;;
5428;SDS011;2737;52.386;9.980;2023-06-26T07:46:54;19.92;;;4.43;;
5428;SDS011;2737;52.386;9.980;2023-06-26T07:49:21;7.18;;;4.70;;
5428;SDS011;2737;52.386;9.980;2023-06-26T07:51:48;11.85;;;4.13;;
5428;SDS011;2737;52.386;9.980;2023-06-26T07:54:14;4.80;;;3.97;;
5428;SDS011;2737;52.386;9.980;2023-06-26T07:56:54;8.60;;;5.15;;
5428;SDS011;2737;52.386;9.980;2023-06-26T07:59:22;6.15;;;4.88;;
5428;SDS011;2737;52.386;9.980;2023-06-26T08:01:51;6.38;;;4.43;;
5428;SDS011;2737;52.386;9.980;2023-06-26T08:04:20;6.68;;;4.13;;
5428;SDS011;2737;52.386;9.980;2023-06-26T08:06:48;4.90;;;4.40;;
5428;SDS011;2737;52.386;9.980;2023-06-26T08:09:15;8.00;;;4.82;;
5428;SDS011;2737;52.386;9.980;2023-06-26T08:11:45;9.18;;;4.78;;
5428;SDS011;2737;52.386;9.980;2023-06-26T08:14:12;7.57;;;4.53;;
5428;SDS011;2737;52.386;9.980;2023-06-26T08:16:39;9.32;;;4.72;;
5428;SDS011;2737;52.386;9.980;2023-06-26T08:19:09;5.25;;;4.63;;
5428;SDS011;2737;52.386;9.980;2023-06-26T08:21:36;6.05;;;4.65;;
5428;SDS011;2737;52.386;9.980;2023-06-26T08:24:03;6.13;;;5.03;;
5428;SDS011;2737;52.386;9.980;2023-06-26T08:26:30;5.75;;;4.97;;
5428;SDS011;2737;52.386;9.980;2023-06-26T08:28:57;7.30;;;4.95;;
5428;SDS011;2737;52.386;9.980;2023-06-26T08:31:24;6.38;;;4.80;;
5428;SDS011;2737;52.386;9.980;2023-06-26T08:33:51;5.65;;;4.57;;
5428;SDS011;2737;52.386;9.980;2023-06-26T08:36:20;6.97;;;4.85;;
5428;SDS011;2737;52.386;9.980;2023-06-26T08:38:47;7.25;;;5.00;;
5428;SDS011;2737;52.386;9.980;2023-06-26T08:41:14;7.75;;;5.00;;
5428;SDS011;2737;52.386;9.980;2023-06-26T08:43:41;5.85;;;4.45;;
5428;SDS011;2737;52.386;9.980;2023-06-26T08:46:08;7.47;;;5.65;;
5428;SDS011;2737;52.386;9.980;2023-06-26T08:48:35;6.13;;;4.70;;
5428;SDS011;2737;52.386;9.980;2023-06-26T08:51:04;11.90;;;5.10;;
5428;SDS011;2737;52.386;9.980;2023-06-26T08:53:39;5.85;;;5.00;;
5428;SDS011;2737;52.386;9.980;2023-06-26T08:56:15;7.93;;;5.13;;
5428;SDS011;2737;52.386;9.980;2023-06-26T08:58:46;6.32;;;5.30;;
5428;SDS011;2737;52.386;9.980;2023-06-26T09:01:13;6.55;;;4.93;;
5428;SDS011;2737;52.386;9.980;2023-06-26T09:03:40;8.55;;;6.00;;
5428;SDS011;2737;52.386;9.980;2023-06-26T09:06:08;10.00;;;5.40;;
5428;SDS011;2737;52.386;9.980;2023-06-26T09:08:35;11.48;;;5.10;;
5428;SDS011;2737;52.386;9.980;2023-06-26T09:11:03;6.53;;;5.13;;
5428;SDS011;2737;52.386;9.980;2023-06-26T09:13:30;10.40;;;5.68;;
5428;SDS011;2737;52.386;9.980;2023-06-26T09:15:58;6.10;;;5.35;;
5428;SDS011;2737;52.386;9.980;2023-06-26T09:18:25;8.90;;;4.93;;
5428;SDS011;2737;52.386;9.980;2023-06-26T09:20:52;9.27;;;5.65;;
5428;SDS011;2737;52.386;9.980;2023-06-26T09:23:20;7.25;;;4.80;;
5428;SDS011;2737;52.386;9.980;2023-06-26T09:25:48;10.60;;;5.50;;
5428;SDS011;2737;52.386;9.980;2023-06-26T09:28:18;9.65;;;6.07;;
5428;SDS011;2737;52.386;9.980;2023-06-26T09:30:46;10.57;;;6.32;;
5428;SDS011;2737;52.386;9.980;2023-06-26T09:33:13;7.97;;;6.03;;
5428;SDS011;2737;52.386;9.980;2023-06-26T09:35:41;10.10;;;6.18;;
5428;SDS011;2737;52.386;9.980;2023-06-26T09:38:08;8.55;;;5.90;;
5428;SDS011;2737;52.386;9.980;2023-06-26T09:40:35;9.50;;;6.72;;
5428;SDS011;2737;52.386;9.980;2023-06-26T09:43:03;14.35;;;6.20;;
5428;SDS011;2737;52.386;9.980;2023-06-26T09:45:32;21.92;;;6.18;;
5428;SDS011;2737;52.386;9.980;2023-06-26T09:48:01;13.93;;;5.55;;
5428;SDS011;2737;52.386;9.980;2023-06-26T09:50:29;10.05;;;5.85;;
5428;SDS011;2737;52.386;9.980;2023-06-26T09:52:59;10.82;;;6.85;;
5428;SDS011;2737;52.386;9.980;2023-06-26T09:55:34;8.10;;;5.68;;
5428;SDS011;2737;52.386;9.980;2023-06-26T09:58:01;12.40;;;6.90;;
5428;SDS011;2737;52.386;9.980;2023-06-26T10:00:29;9.30;;;6.47;;
5428;SDS011;2737;52.386;9.980;2023-06-26T10:02:58;20.38;;;8.60;;
5428;SDS011;2737;52.386;9.980;2023-06-26T10:05:25;14.65;;;8.00;;
5428;SDS011;2737;52.386;9.980;2023-06-26T10:07:54;12.25;;;6.93;;
5428;SDS011;2737;52.386;9.980;2023-06-26T10:10:22;8.57;;;7.38;;
5428;SDS011;2737;52.386;9.980;2023-06-26T10:12:51;15.55;;;7.63;;
5428;SDS011;2737;52.386;9.980;2023-06-26T10:15:22;19.42;;;8.23;;
5428;SDS011;2737;52.386;9.980;2023-06-26T10:17:53;16.17;;;7.20;;
5428;SDS011;2737;52.386;9.980;2023-06-26T10:20:22;13.63;;;7.03;;
5428;SDS011;2737;52.386;9.980;2023-06-26T10:22:51;12.55;;;7.68;;
5428;SDS011;2737;52.386;9.980;2023-06-26T10:25:19;8.95;;;7.13;;
5428;SDS011;2737;52.386;9.980;2023-06-26T10:27:49;12.60;;;7.00;;
5428;SDS011;2737;52.386;9.980;2023-06-26T10:30:21;19.50;;;7.50;;
5428;SDS011;2737;52.386;9.980;2023-06-26T10:32:53;13.15;;;7.18;;
5428;SDS011;2737;52.386;9.980;2023-06-26T10:35:21;11.93;;;8.20;;
5428;SDS011;2737;52.386;9.980;2023-06-26T10:37:48;24.90;;;8.02;;
5428;SDS011;2737;52.386;9.980;2023-06-26T10:40:21;12.95;;;8.82;;
5428;SDS011;2737;52.386;9.980;2023-06-26T10:42:50;16.65;;;8.13;;
5428;SDS011;2737;52.386;9.980;2023-06-26T10:45:31;14.02;;;8.02;;
5428;SDS011;2737;52.386;9.980;2023-06-26T10:48:01;13.27;;;7.85;;
5428;SDS011;2737;52.386;9.980;2023-06-26T10:50:29;10.73;;;6.13;;
5428;SDS011;2737;52.386;9.980;2023-06-26T10:53:07;12.25;;;5.80;;
5428;SDS011;2737;52.386;9.980;2023-06-26T10:55:35;19.80;;;7.38;;
5428;SDS011;2737;52.386;9.980;2023-06-26T10:58:02;20.48;;;6.43;;
5428;SDS011;2737;52.386;9.980;2023-06-26T11:00:30;12.13;;;6.20;;
5428;SDS011;2737;52.386;9.980;2023-06-26T11:02:57;11.57;;;7.10;;
5428;SDS011;2737;52.386;9.980;2023-06-26T11:05:28;13.75;;;7.60;;
5428;SDS011;2737;52.386;9.980;2023-06-26T11:08:02;16.05;;;8.90;;
5428;SDS011;2737;52.386;9.980;2023-06-26T11:10:42;14.05;;;8.00;;
5428;SDS011;2737;52.386;9.980;2023-06-26T11:13:15;14.07;;;8.93;;
5428;SDS011;2737;52.386;9.980;2023-06-26T11:15:44;19.95;;;9.75;;
5428;SDS011;2737;52.386;9.980;2023-06-26T11:18:11;18.95;;;9.82;;
5428;SDS011;2737;52.386;9.980;2023-06-26T11:20:40;12.95;;;9.27;;
5428;SDS011;2737;52.386;9.980;2023-06-26T11:23:07;12.43;;;8.95;;
5428;SDS011;2737;52.386;9.980;2023-06-26T11:25:35;14.98;;;10.27;;
5428;SDS011;2737;52.386;9.980;2023-06-26T11:28:03;14.23;;;10.00;;
5428;SDS011;2737;52.386;9.980;2023-06-26T11:30:31;15.27;;;9.63;;
5428;SDS011;2737;52.386;9.980;2023-06-26T11:33:02;17.13;;;9.82;;
5428;SDS011;2737;52.386;9.980;2023-06-26T11:35:30;15.27;;;8.80;;
5428;SDS011;2737;52.386;9.980;2023-06-26T11:37:59;16.08;;;9.43;;
5428;SDS011;2737;52.386;9.980;2023-06-26T11:40:30;16.05;;;9.27;;
5428;SDS011;2737;52.386;9.980;2023-06-26T11:42:57;15.93;;;8.77;;
5428;SDS011;2737;52.386;9.980;2023-06-26T11:45:25;15.85;;;8.88;;
5428;SDS011;2737;52.386;9.980;2023-06-26T11:47:54;16.60;;;9.40;;
5428;SDS011;2737;52.386;9.980;2023-06-26T11:50:22;18.13;;;9.85;;
5428;SDS011;2737;52.386;9.980;2023-06-26T11:52:52;12.77;;;9.00;;
5428;SDS011;2737;52.386;9.980;2023-06-26T11:55:22;14.68;;;9.05;;
5428;SDS011;2737;52.386;9.980;2023-06-26T11:57:49;10.88;;;8.00;;
5428;SDS011;2737;52.386;9.980;2023-06-26T12:00:17;14.35;;;7.85;;
5428;SDS011;2737;52.386;9.980;2023-06-26T12:02:44;13.95;;;8.50;;
5428;SDS011;2737;52.386;9.980;2023-06-26T12:05:12;15.82;;;8.13;;
5428;SDS011;2737;52.386;9.980;2023-06-26T12:07:40;16.33;;;7.30;;
5428;SDS011;2737;52.386;9.980;2023-06-26T12:10:09;12.95;;;8.27;;
5428;SDS011;2737;52.386;9.980;2023-06-26T12:12:38;11.75;;;7.80;;
5428;SDS011;2737;52.386;9.980;2023-06-26T12:15:06;9.68;;;8.07;;
5428;SDS011;2737;52.386;9.980;2023-06-26T12:17:36;9.55;;;7.20;;
5428;SDS011;2737;52.386;9.980;2023-06-26T12:20:06;11.20;;;6.85;;
5428;SDS011;2737;52.386;9.980;2023-06-26T12:22:46;9.57;;;7.35;;
5428;SDS011;2737;52.386;9.980;2023-06-26T12:25:14;10.05;;;6.30;;
5428;SDS011;2737;52.386;9.980;2023-06-26T12:27:44;15.70;;;4.80;;
5428;SDS011;2737;52.386;9.980;2023-06-26T12:30:12;16.77;;;4.45;;
5428;SDS011;2737;52.386;9.980;2023-06-26T12:32:40;10.25;;;5.00;;
5428;SDS011;2737;52.386;9.980;2023-06-26T12:35:10;7.82;;;4.30;;
5428;SDS011;2737;52.386;9.980;2023-06-26T12:37:37;10.05;;;5.25;;
5428;SDS011;2737;52.386;9.980;2023-06-26T12:40:09;8.43;;;4.53;;
5428;SDS011;2737;52.386;9.980;2023-06-26T12:42:45;10.68;;;5.30;;
5428;SDS011;2737;52.386;9.980;2023-06-26T12:45:12;8.60;;;4.95;;
5428;SDS011;2737;52.386;9.980;2023-06-26T12:47:40;10.27;;;4.15;;
5428;SDS011;2737;52.386;9.980;2023-06-26T12:50:07;5.43;;;4.13;;
5428;SDS011;2737;52.386;9.980;2023-06-26T12:52:35;8.43;;;4.63;;
5428;SDS011;2737;52.386;9.980;2023-06-26T12:55:02;7.35;;;3.92;;
5428;SDS011;2737;52.386;9.980;2023-06-26T12:57:29;10.15;;;4.80;;
5428;SDS011;2737;52.386;9.980;2023-06-26T12:59:58;6.20;;;4.07;;
5428;SDS011;2737;52.386;9.980;2023-06-26T13:02:25;15.27;;;4.53;;
5428;SDS011;2737;52.386;9.980;2023-06-26T13:04:52;10.95;;;3.78;;
5428;SDS011;2737;52.386;9.980;2023-06-26T13:07:19;4.55;;;3.70;;
5428;SDS011;2737;52.386;9.980;2023-06-26T13:09:46;10.80;;;3.50;;
5428;SDS011;2737;52.386;9.980;2023-06-26T13:12:14;9.30;;;3.60;;
5428;SDS011;2737;52.386;9.980;2023-06-26T13:14:41;9.23;;;3.10;;
5428;SDS011;2737;52.386;9.980;2023-06-26T13:17:10;5.97;;;3.53;;
5428;SDS011;2737;52.386;9.980;2023-06-26T13:19:37;8.98;;;3.83;;
5428;SDS011;2737;52.386;9.980;2023-06-26T13:22:05;9.30;;;3.28;;
5428;SDS011;2737;52.386;9.980;2023-06-26T13:24:32;8.55;;;3.70;;
5428;SDS011;2737;52.386;9.980;2023-06-26T13:26:59;7.95;;;3.13;;
5428;SDS011;2737;52.386;9.980;2023-06-26T13:29:26;5.28;;;2.80;;
5428;SDS011;2737;52.386;9.980;2023-06-26T13:31:53;4.95;;;3.00;;
5428;SDS011;2737;52.386;9.980;2023-06-26T13:34:23;6.95;;;2.90;;
5428;SDS011;2737;52.386;9.980;2023-06-26T13:36:52;10.40;;;3.50;;
5428;SDS011;2737;52.386;9.980;2023-06-26T13:39:19;4.45;;;3.08;;
5428;SDS011;2737;52.386;9.980;2023-06-26T13:41:46;6.80;;;2.97;;
5428;SDS011;2737;52.386;9.980;2023-06-26T13:44:13;10.60;;;3.40;;
5428;SDS011;2737;52.386;9.980;2023-06-26T13:46:40;4.50;;;2.72;;
5428;SDS011;2737;52.386;9.980;2023-06-26T13:49:08;4.35;;;2.55;;
5428;SDS011;2737;52.386;9.980;2023-06-26T13:51:36;6.22;;;2.53;;
5428;SDS011;2737;52.386;9.980;2023-06-26T13:54:10;5.00;;;2.20;;
5428;SDS011;2737;52.386;9.980;2023-06-26T13:56:37;3.55;;;2.00;;
5428;SDS011;2737;52.386;9.980;2023-06-26T13:59:04;5.68;;;2.10;;
5428;SDS011;2737;52.386;9.980;2023-06-26T14:01:31;8.07;;;2.60;;
5428;SDS011;2737;52.386;9.980;2023-06-26T14:03:58;4.13;;;2.10;;
5428;SDS011;2737;52.386;9.980;2023-06-26T14:06:25;6.57;;;2.50;;
5428;SDS011;2737;52.386;9.980;2023-06-26T14:08:53;8.15;;;2.58;;
5428;SDS011;2737;52.386;9.980;2023-06-26T14:11:20;5.60;;;2.60;;
5428;SDS011;2737;52.386;9.980;2023-06-26T14:13:48;6.95;;;2.78;;
5428;SDS011;2737;52.386;9.980;2023-06-26T14:16:15;4.88;;;2.60;;
5428;SDS011;2737;52.386;9.980;2023-06-26T14:18:43;4.20;;;2.30;;
5428;SDS011;2737;52.386;9.980;2023-06-26T14:21:10;9.55;;;2.28;;
5428;SDS011;2737;52.386;9.980;2023-06-26T14:23:37;5.90;;;2.70;;
5428;SDS011;2737;52.386;9.980;2023-06-26T14:26:06;6.43;;;2.80;;
5428;SDS011;2737;52.386;9.980;2023-06-26T14:28:33;12.88;;;2.47;;
5428;SDS011;2737;52.386;9.980;2023-06-26T14:31:00;16.23;;;2.63;;
5428;SDS011;2737;52.386;9.980;2023-06-26T14:33:27;3.03;;;2.30;;
5428;SDS011;2737;52.386;9.980;2023-06-26T14:35:54;6.63;;;2.38;;
5428;SDS011;2737;52.386;9.980;2023-06-26T14:38:21;10.63;;;2.38;;
5428;SDS011;2737;52.386;9.980;2023-06-26T14:40:48;5.97;;;2.47;;
5428;SDS011;2737;52.386;9.980;2023-06-26T14:43:17;11.68;;;2.55;;
5428;SDS011;2737;52.386;9.980;2023-06-26T14:45:44;10.65;;;2.22;;
5428;SDS011;2737;52.386;9.980;2023-06-26T14:48:11;5.38;;;2.22;;
5428;SDS011;2737;52.386;9.980;2023-06-26T14:50:38;12.98;;;2.45;;
5428;SDS011;2737;52.386;9.980;2023-06-26T14:53:05;3.67;;;2.17;;
5428;SDS011;2737;52.386;9.980;2023-06-26T14:55:32;3.95;;;2.28;;
5428;SDS011;2737;52.386;9.980;2023-06-26T14:57:59;6.57;;;2.00;;
5428;SDS011;2737;52.386;9.980;2023-06-26T15:00:27;6.07;;;2.78;;
5428;SDS011;2737;52.386;9.980;2023-06-26T15:02:54;5.43;;;2.75;;
5428;SDS011;2737;52.386;9.980;2023-06-26T15:05:23;2.83;;;2.00;;
5428;SDS011;2737;52.386;9.980;2023-06-26T15:07:51;5.68;;;2.67;;
5428;SDS011;2737;52.386;9.980;2023-06-26T15:10:18;3.72;;;1.88;;
5428;SDS011;2737;52.386;9.980;2023-06-26T15:12:46;4.70;;;2.08;;
5428;SDS011;2737;52.386;9.980;2023-06-26T15:15:13;6.53;;;1.92;;